Time;durP1;ratioP1;P1;durP2;ratioP2;P2;SDS_P1;SDS_P2;PMS_P1;PMS_P2;Temp;Humidity;BMP_temperature;BMP_pressure;BME280_temperature;BME280_humidity;BME280_pressure;Samples;Min_cycle;Max_cycle;Signal;HPM_P1;HPM_P2
2023/05/23 00:03:03;;;;;;;;;;;;;;;16.11;83.17;101524.72;20800920;28;19929;-56
2023/05/23 00:13:25;;;;;;;;;;;;;;;16.08;83.00;101514.38;20806854;28;19929;-56
2023/05/23 00:23:47;;;;;;;;;;;;;;;16.06;83.87;101524.03;20801308;28;19933;-57
2023/05/23 00:34:08;;;;;;;;;;;;;;;16.04;86.60;101510.22;20792830;28;19932;-57
2023/05/23 00:44:29;;;;;;;;;;;;;;;16.01;83.52;101512.94;20804850;28;20027;-57
2023/05/23 00:54:51;;;;;;;;;;;;;;;16.00;83.75;101511.25;20791324;28;19934;-57
2023/05/23 01:05:16;;;;;;;;;;;;;;;15.90;85.87;101509.91;20796889;28;20283;-56
2023/05/23 01:16:01;;;;;;;;;;;;;;;15.86;83.29;101495.28;20791903;28;19929;-57
2023/05/23 01:26:25;;;;;;;;;;;;;;;15.77;83.17;101487.84;20797664;28;19929;-57
2023/05/23 01:36:48;;;;;;;;;;;;;;;15.62;84.18;101501.53;20768266;28;20008;-57
2023/05/23 01:47:10;;;;;;;;;;;;;;;15.57;85.56;101500.84;20796629;28;20028;-57
2023/05/23 01:57:32;;;;;;;;;;;;;;;15.47;86.74;101507.34;20797887;28;19925;-57
2023/05/23 02:07:53;;;;;;;;;;;;;;;15.41;86.34;101504.97;20803403;28;20538;-57
2023/05/23 02:18:15;;;;;;;;;;;;;;;15.37;86.39;101519.84;20814578;28;19944;-55
2023/05/23 02:28:36;;;;;;;;;;;;;;;15.39;86.66;101511.97;20806631;28;19929;-56
2023/05/23 02:38:58;;;;;;;;;;;;;;;15.40;90.86;101513.69;20798108;28;19929;-54
2023/05/23 02:49:19;;;;;;;;;;;;;;;15.37;86.76;101530.28;20813168;28;19926;-55
2023/05/23 02:59:41;;;;;;;;;;;;;;;15.31;90.45;101532.28;20809428;28;19948;-55
2023/05/23 03:10:02;;;;;;;;;;;;;;;15.24;87.09;101530.81;20803027;28;20020;-55
2023/05/23 03:20:24;;;;;;;;;;;;;;;15.23;87.69;101544.75;20805967;28;20355;-56
2023/05/23 03:30:45;;;;;;;;;;;;;;;15.11;93.02;101554.75;20794180;28;19936;-56
2023/05/23 03:41:07;;;;;;;;;;;;;;;15.03;89.56;101561.97;20805430;28;20292;-56
2023/05/23 03:51:28;;;;;;;;;;;;;;;14.84;95.55;101566.16;20808913;28;19929;-55
2023/05/23 04:01:50;;;;;;;;;;;;;;;14.81;92.21;101581.94;20804383;28;20008;-56
2023/05/23 04:12:12;;;;;;;;;;;;;;;14.74;95.09;101585.63;20807578;28;19925;-56
2023/05/23 04:22:33;;;;;;;;;;;;;;;14.72;96.93;101608.28;20806607;28;19968;-56
2023/05/23 04:32:57;;;;;;;;;;;;;;;14.63;92.15;101619.00;20797153;28;19929;-55
2023/05/23 04:43:18;;;;;;;;;;;;;;;14.56;91.24;101627.94;20792134;28;20478;-57
2023/05/23 04:53:40;;;;;;;;;;;;;;;14.40;91.57;101649.31;20804693;28;20028;-56
2023/05/23 05:04:02;;;;;;;;;;;;;;;14.29;91.55;101690.47;20810757;28;20040;-56
2023/05/23 05:14:24;;;;;;;;;;;;;;;14.14;91.96;101689.19;20801996;28;19999;-57
2023/05/23 05:24:45;;;;;;;;;;;;;;;13.99;92.91;101694.88;20798789;28;19936;-57
2023/05/23 05:35:07;;;;;;;;;;;;;;;13.83;91.55;101723.06;20801127;28;19996;-56
2023/05/23 05:45:29;;;;;;;;;;;;;;;13.69;91.64;101734.78;20811508;28;20016;-57
2023/05/23 05:55:50;;;;;;;;;;;;;;;13.62;91.81;101748.84;20826427;28;19925;-56
2023/05/23 06:06:11;;;;;;;;;;;;;;;13.56;91.05;101775.03;20813140;28;20375;-57
2023/05/23 06:16:33;;;;;;;;;;;;;;;13.53;91.17;101795.91;20808509;28;19975;-55
2023/05/23 06:26:54;;;;;;;;;;;;;;;13.53;89.87;101801.13;20812383;28;19953;-56
2023/05/23 06:37:16;;;;;;;;;;;;;;;13.53;88.48;101807.19;20797627;28;19952;-56
2023/05/23 06:47:38;;;;;;;;;;;;;;;13.52;89.83;101838.41;20816523;28;19937;-57
2023/05/23 06:57:59;;;;;;;;;;;;;;;13.34;89.67;101849.28;20798538;28;19925;-57
2023/05/23 07:08:21;;;;;;;;;;;;;;;13.19;90.56;101867.84;20812875;28;19940;-57
2023/05/23 07:18:42;;;;;;;;;;;;;;;13.04;93.94;101885.50;20811773;28;20380;-57
2023/05/23 07:29:04;;;;;;;;;;;;;;;12.88;90.12;101917.91;20800944;28;19928;-56
2023/05/23 07:39:26;;;;;;;;;;;;;;;12.81;92.02;101918.91;20783967;28;20304;-57
2023/05/23 07:49:48;;;;;;;;;;;;;;;12.81;91.08;101934.50;20792076;28;20133;-56
2023/05/23 08:00:11;;;;;;;;;;;;;;;12.73;89.59;101964.97;20803664;28;19929;-56
2023/05/23 08:10:32;;;;;;;;;;;;;;;12.68;89.24;101958.16;20800775;28;19926;-56
2023/05/23 08:20:53;;;;;;;;;;;;;;;12.68;88.13;101987.59;20808134;28;19935;-56
2023/05/23 08:31:15;;;;;;;;;;;;;;;12.69;86.23;101997.06;20799522;28;19937;-55
2023/05/23 08:41:38;;;;;;;;;;;;;;;12.63;86.15;102004.16;20800990;28;20649;-56
2023/05/23 08:52:00;;;;;;;;;;;;;;;12.65;83.95;102010.16;20808055;28;20534;-56
2023/05/23 09:02:23;;;;;;;;;;;;;;;12.87;83.61;102017.47;20796273;28;20017;-56
2023/05/23 09:12:45;;;;;;;;;;;;;;;13.04;80.48;102025.84;20795708;28;19925;-55
2023/05/23 09:23:06;;;;;;;;;;;;;;;13.43;80.16;102049.25;20788017;28;19935;-56
2023/05/23 09:33:28;;;;;;;;;;;;;;;13.41;77.53;102056.22;20794898;28;19949;-56
2023/05/23 09:43:51;;;;;;;;;;;;;;;13.59;77.88;102067.09;20784984;28;19925;-56
2023/05/23 09:54:12;;;;;;;;;;;;;;;13.46;77.09;102076.03;20798914;28;19925;-56
2023/05/23 10:04:34;;;;;;;;;;;;;;;13.69;76.97;102080.75;20797812;28;20003;-56
2023/05/23 10:14:56;;;;;;;;;;;;;;;13.93;76.37;102082.78;20816597;28;19933;-56
2023/05/23 10:25:18;;;;;;;;;;;;;;;14.11;74.17;102087.53;20807113;28;19947;-56
2023/05/23 10:36:02;;;;;;;;;;;;;;;14.12;72.90;102095.31;20810358;28;19925;-56
2023/05/23 10:46:43;;;;;;;;;;;;;;;14.23;73.81;102102.03;20822969;28;19937;-54
2023/05/23 10:57:05;;;;;;;;;;;;;;;14.48;70.21;102101.41;20799482;28;20028;-54
2023/05/23 11:07:31;;;;;;;;;;;;;;;14.44;71.07;102104.09;20821964;28;19964;-55
2023/05/23 11:17:53;;;;;;;;;;;;;;;14.90;70.45;102122.88;20806539;28;20020;-55
2023/05/23 11:28:16;;;;;;;;;;;;;;;14.67;69.38;102120.84;20812188;28;20288;-54
2023/05/23 11:38:37;;;;;;;;;;;;;;;14.49;70.33;102139.56;20801907;28;20272;-55
2023/05/23 11:48:59;;;;;;;;;;;;;;;14.57;70.70;102147.19;20809320;28;19929;-55
2023/05/23 11:59:21;;;;;;;;;;;;;;;14.61;66.85;102148.84;20803577;28;19925;-54
2023/05/23 12:09:43;;;;;;;;;;;;;;;14.87;71.68;102142.03;20813237;28;20513;-54
2023/05/23 12:20:05;;;;;;;;;;;;;;;14.98;67.24;102167.81;20805994;28;19933;-54
2023/05/23 12:30:26;;;;;;;;;;;;;;;15.03;66.43;102165.97;20802144;28;19931;-55
2023/05/23 12:41:06;;;;;;;;;;;;;;;14.99;69.84;102175.63;20804644;28;19925;-56
2023/05/23 12:51:27;;;;;;;;;;;;;;;15.02;69.29;102172.91;20794634;28;20039;-56
2023/05/23 13:01:49;;;;;;;;;;;;;;;15.05;68.65;102180.63;20791449;28;20270;-55
2023/05/23 13:12:11;;;;;;;;;;;;;;;15.05;64.40;102188.47;20798069;28;20303;-55
2023/05/23 13:22:32;;;;;;;;;;;;;;;14.85;67.30;102188.13;20794692;28;20388;-56
2023/05/23 13:32:54;;;;;;;;;;;;;;;15.00;67.32;102192.94;20797956;28;19978;-56
2023/05/23 13:43:15;;;;;;;;;;;;;;;15.03;63.81;102198.06;20786556;28;19963;-54
2023/05/23 13:53:37;;;;;;;;;;;;;;;15.31;66.18;102184.31;20793909;28;19933;-55
2023/05/23 14:03:58;;;;;;;;;;;;;;;14.87;67.51;102193.34;20806127;28;19929;-54
2023/05/23 14:14:19;;;;;;;;;;;;;;;14.84;66.24;102211.63;20798498;28;19925;-55
2023/05/23 14:24:41;;;;;;;;;;;;;;;14.69;66.11;102210.25;20820321;28;19930;-57
2023/05/23 14:35:03;;;;;;;;;;;;;;;14.67;62.71;102219.88;20803425;28;19929;-56
2023/05/23 14:45:25;;;;;;;;;;;;;;;15.06;64.22;102208.44;20817797;28;19935;-56
2023/05/23 14:55:46;;;;;;;;;;;;;;;15.13;60.78;102214.34;20811155;28;20323;-56
2023/05/23 15:06:08;;;;;;;;;;;;;;;14.98;64.71;102220.81;20798068;28;20300;-55
2023/05/23 15:16:33;;;;;;;;;;;;;;;14.84;66.33;102235.09;20804145;28;20030;-56
2023/05/23 15:26:55;;;;;;;;;;;;;;;15.08;65.54;102248.38;20806643;28;19929;-56
2023/05/23 15:37:32;;;;;;;;;;;;;;;15.13;63.20;102245.63;20817027;28;20020;-55
2023/05/23 15:47:53;;;;;;;;;;;;;;;15.00;60.37;102245.09;20796611;28;19935;-56
2023/05/23 15:58:15;;;;;;;;;;;;;;;15.28;60.95;102241.75;20802263;28;20074;-55
2023/05/23 16:08:36;;;;;;;;;;;;;;;15.45;60.75;102247.41;20796586;28;20468;-56
2023/05/23 16:18:58;;;;;;;;;;;;;;;15.48;63.32;102257.75;20804341;28;20020;-55
2023/05/23 16:29:20;;;;;;;;;;;;;;;15.92;55.06;102247.78;20795913;28;20468;-57
2023/05/23 16:39:41;;;;;;;;;;;;;;;16.31;60.37;102250.09;20800819;28;19925;-56
2023/05/23 16:50:03;;;;;;;;;;;;;;;16.17;59.50;102260.97;20797326;28;20294;-56
2023/05/23 17:00:25;;;;;;;;;;;;;;;15.91;60.54;102263.50;20811244;28;19933;-58
2023/05/23 17:10:47;;;;;;;;;;;;;;;15.26;62.03;102267.03;20800159;28;20317;-56
2023/05/23 17:21:08;;;;;;;;;;;;;;;14.47;63.74;102268.97;20794021;28;19975;-57
2023/05/23 17:31:30;;;;;;;;;;;;;;;14.41;60.24;102263.91;20780922;28;19936;-57
2023/05/23 17:41:51;;;;;;;;;;;;;;;14.51;62.23;102278.44;20799373;28;20361;-55
2023/05/23 17:52:13;;;;;;;;;;;;;;;14.45;65.29;102291.59;20808288;28;19936;-57
2023/05/23 18:02:35;;;;;;;;;;;;;;;14.37;65.57;102298.75;20785374;28;20008;-55
2023/05/23 18:12:56;;;;;;;;;;;;;;;14.12;65.99;102319.19;20785387;28;19932;-55
2023/05/23 18:23:18;;;;;;;;;;;;;;;14.03;65.73;102303.78;20797972;28;19933;-54
2023/05/23 18:33:40;;;;;;;;;;;;;;;13.61;62.34;102314.16;20796265;28;19988;-56
2023/05/23 18:44:01;;;;;;;;;;;;;;;13.45;65.54;102323.13;20806186;28;19929;-55
2023/05/23 18:54:23;;;;;;;;;;;;;;;13.16;66.28;102347.03;20806071;28;20304;-55
2023/05/23 19:04:44;;;;;;;;;;;;;;;13.03;67.89;102338.56;20812110;28;20479;-55
2023/05/23 19:15:06;;;;;;;;;;;;;;;13.03;67.52;102348.09;20807418;28;19932;-56
2023/05/23 19:25:28;;;;;;;;;;;;;;;12.81;67.75;102365.72;20813461;28;20299;-56
2023/05/23 19:35:50;;;;;;;;;;;;;;;12.68;66.81;102364.19;20802988;28;19947;-55
2023/05/23 19:46:12;;;;;;;;;;;;;;;12.49;68.43;102357.50;20782431;28;20328;-56
2023/05/23 19:56:34;;;;;;;;;;;;;;;12.32;69.87;102369.84;20808201;28;19929;-57
2023/05/23 20:06:56;;;;;;;;;;;;;;;12.21;70.17;102371.72;20794575;28;20356;-56
2023/05/23 20:17:18;;;;;;;;;;;;;;;12.13;70.84;102368.34;20792323;28;20551;-56
2023/05/23 20:27:39;;;;;;;;;;;;;;;12.01;71.04;102369.34;20797706;28;19980;-56
2023/05/23 20:38:01;;;;;;;;;;;;;;;11.90;70.99;102367.75;20780599;28;19929;-56
2023/05/23 20:48:22;;;;;;;;;;;;;;;11.98;71.70;102363.31;20798523;28;19934;-57
2023/05/23 20:58:44;;;;;;;;;;;;;;;11.93;71.51;102354.75;20788761;28;19929;-57
2023/05/23 21:09:07;;;;;;;;;;;;;;;11.75;72.25;102360.13;20796775;28;19959;-57
2023/05/23 21:19:29;;;;;;;;;;;;;;;11.65;72.83;102368.84;20807682;28;19933;-55
2023/05/23 21:29:52;;;;;;;;;;;;;;;11.62;73.00;102377.50;20796001;28;21546;-56
2023/05/23 21:40:14;;;;;;;;;;;;;;;11.55;73.44;102370.66;20800493;28;19925;-56
2023/05/23 21:50:35;;;;;;;;;;;;;;;11.58;73.62;102356.81;20795879;28;19929;-54
2023/05/23 22:00:57;;;;;;;;;;;;;;;11.46;73.50;102356.94;20797624;28;19929;-55
2023/05/23 22:11:18;;;;;;;;;;;;;;;11.38;74.29;102358.72;20799134;28;20365;-54
2023/05/23 22:21:39;;;;;;;;;;;;;;;11.23;74.61;102364.88;20795512;28;19940;-55
2023/05/23 22:32:01;;;;;;;;;;;;;;;11.01;74.87;102358.16;20816065;28;20037;-54
2023/05/23 22:42:22;;;;;;;;;;;;;;;10.73;75.35;102357.47;20820488;28;19983;-56
2023/05/23 22:52:44;;;;;;;;;;;;;;;10.64;76.39;102356.69;20803212;28;19925;-54
2023/05/23 23:03:06;;;;;;;;;;;;;;;10.48;77.05;102366.25;20827041;28;19929;-56
2023/05/23 23:13:27;;;;;;;;;;;;;;;10.35;77.29;102368.88;20824000;28;20013;-55
2023/05/23 23:23:49;;;;;;;;;;;;;;;10.23;77.57;102353.41;20810633;28;19925;-56
2023/05/23 23:34:11;;;;;;;;;;;;;;;10.18;77.52;102339.66;20806883;28;19926;-56
2023/05/23 23:44:32;;;;;;;;;;;;;;;10.06;79.78;102340.50;20803937;28;19981;-56
2023/05/23 23:54:54;;;;;;;;;;;;;;;10.01;77.98;102337.97;20803551;28;19929;-56
